sensor_id;sensor_type;location;lat;lon;timestamp;temperature;humidity
18392;DHT22;9322;50.932;5.318;2023-03-12T00:01:18;4.70;1.40
18392;DHT22;9322;50.932;5.318;2023-03-12T00:03:44;4.80;1.40
18392;DHT22;9322;50.932;5.318;2023-03-12T00:06:11;4.70;1.40
18392;DHT22;9322;50.932;5.318;2023-03-12T00:08:37;4.30;1.40
18392;DHT22;9322;50.932;5.318;2023-03-12T00:11:07;4.40;1.40
18392;DHT22;9322;50.932;5.318;2023-03-12T00:13:33;4.40;1.40
18392;DHT22;9322;50.932;5.318;2023-03-12T00:16:10;4.20;1.40
18392;DHT22;9322;50.932;5.318;2023-03-12T00:18:37;4.20;1.40
18392;DHT22;9322;50.932;5.318;2023-03-12T00:21:03;4.20;1.40
18392;DHT22;9322;50.932;5.318;2023-03-12T00:23:30;4.20;1.40
18392;DHT22;9322;50.932;5.318;2023-03-12T00:26:03;4.20;1.40
18392;DHT22;9322;50.932;5.318;2023-03-12T00:28:30;4.10;1.40
18392;DHT22;9322;50.932;5.318;2023-03-12T00:30:56;4.40;1.40
18392;DHT22;9322;50.932;5.318;2023-03-12T00:33:24;4.30;1.40
18392;DHT22;9322;50.932;5.318;2023-03-12T00:35:50;4.30;1.40
18392;DHT22;9322;50.932;5.318;2023-03-12T00:38:16;4.20;1.40
18392;DHT22;9322;50.932;5.318;2023-03-12T00:40:41;4.20;1.40
18392;DHT22;9322;50.932;5.318;2023-03-12T00:43:07;4.20;1.40
18392;DHT22;9322;50.932;5.318;2023-03-12T00:45:33;4.10;1.40
18392;DHT22;9322;50.932;5.318;2023-03-12T00:47:58;4.20;1.40
18392;DHT22;9322;50.932;5.318;2023-03-12T00:50:24;4.30;1.40
18392;DHT22;9322;50.932;5.318;2023-03-12T00:52:50;4.60;1.40
18392;DHT22;9322;50.932;5.318;2023-03-12T00:55:16;4.30;1.40
18392;DHT22;9322;50.932;5.318;2023-03-12T00:57:41;4.10;1.40
18392;DHT22;9322;50.932;5.318;2023-03-12T01:00:08;4.10;1.40
18392;DHT22;9322;50.932;5.318;2023-03-12T01:02:36;4.10;1.40
18392;DHT22;9322;50.932;5.318;2023-03-12T01:05:03;4.10;1.40
18392;DHT22;9322;50.932;5.318;2023-03-12T01:07:28;4.10;1.40
18392;DHT22;9322;50.932;5.318;2023-03-12T01:09:54;4.10;1.40
18392;DHT22;9322;50.932;5.318;2023-03-12T01:12:20;4.20;1.40
18392;DHT22;9322;50.932;5.318;2023-03-12T01:14:46;4.20;1.40
18392;DHT22;9322;50.932;5.318;2023-03-12T01:17:11;4.30;1.40
18392;DHT22;9322;50.932;5.318;2023-03-12T01:19:37;4.60;1.40
18392;DHT22;9322;50.932;5.318;2023-03-12T01:22:03;4.30;1.40
18392;DHT22;9322;50.932;5.318;2023-03-12T01:24:28;4.30;1.40
18392;DHT22;9322;50.932;5.318;2023-03-12T01:26:54;4.30;1.40
18392;DHT22;9322;50.932;5.318;2023-03-12T01:29:21;4.20;1.40
18392;DHT22;9322;50.932;5.318;2023-03-12T01:31:47;4.50;1.40
18392;DHT22;9322;50.932;5.318;2023-03-12T01:34:13;4.20;1.40
18392;DHT22;9322;50.932;5.318;2023-03-12T01:36:38;4.30;1.40
18392;DHT22;9322;50.932;5.318;2023-03-12T01:39:04;4.30;1.40
18392;DHT22;9322;50.932;5.318;2023-03-12T01:41:31;4.40;1.40
18392;DHT22;9322;50.932;5.318;2023-03-12T01:43:58;4.40;1.40
18392;DHT22;9322;50.932;5.318;2023-03-12T01:46:37;4.40;1.40
18392;DHT22;9322;50.932;5.318;2023-03-12T01:49:23;4.30;1.40
18392;DHT22;9322;50.932;5.318;2023-03-12T01:54:41;4.40;1.40
18392;DHT22;9322;50.932;5.318;2023-03-12T01:57:12;4.30;1.40
18392;DHT22;9322;50.932;5.318;2023-03-12T01:59:46;4.30;1.40
18392;DHT22;9322;50.932;5.318;2023-03-12T02:02:14;4.50;1.40
18392;DHT22;9322;50.932;5.318;2023-03-12T02:04:41;4.60;1.40
18392;DHT22;9322;50.932;5.318;2023-03-12T02:07:10;4.50;1.40
18392;DHT22;9322;50.932;5.318;2023-03-12T02:09:44;4.40;1.40
18392;DHT22;9322;50.932;5.318;2023-03-12T02:12:12;4.30;1.40
18392;DHT22;9322;50.932;5.318;2023-03-12T02:14:38;4.50;1.40
18392;DHT22;9322;50.932;5.318;2023-03-12T02:17:04;4.20;1.40
18392;DHT22;9322;50.932;5.318;2023-03-12T02:19:46;4.30;1.40
18392;DHT22;9322;50.932;5.318;2023-03-12T02:22:15;4.30;1.40
18392;DHT22;9322;50.932;5.318;2023-03-12T02:27:32;4.30;1.40
18392;DHT22;9322;50.932;5.318;2023-03-12T02:30:02;4.70;1.40
18392;DHT22;9322;50.932;5.318;2023-03-12T02:32:33;4.40;1.40
18392;DHT22;9322;50.932;5.318;2023-03-12T02:35:01;4.50;1.40
18392;DHT22;9322;50.932;5.318;2023-03-12T02:37:27;4.60;1.40
18392;DHT22;9322;50.932;5.318;2023-03-12T02:40:07;4.40;1.40
18392;DHT22;9322;50.932;5.318;2023-03-12T02:42:34;4.30;1.40
18392;DHT22;9322;50.932;5.318;2023-03-12T02:45:01;4.30;1.40
18392;DHT22;9322;50.932;5.318;2023-03-12T02:47:27;4.30;1.40
18392;DHT22;9322;50.932;5.318;2023-03-12T02:49:53;4.20;1.40
18392;DHT22;9322;50.932;5.318;2023-03-12T02:52:19;4.20;1.40
18392;DHT22;9322;50.932;5.318;2023-03-12T02:54:44;4.40;1.40
18392;DHT22;9322;50.932;5.318;2023-03-12T02:57:10;4.40;1.40
18392;DHT22;9322;50.932;5.318;2023-03-12T02:59:36;4.60;1.40
18392;DHT22;9322;50.932;5.318;2023-03-12T03:02:02;4.60;1.40
18392;DHT22;9322;50.932;5.318;2023-03-12T03:04:29;4.60;1.40
18392;DHT22;9322;50.932;5.318;2023-03-12T03:06:55;4.50;1.40
18392;DHT22;9322;50.932;5.318;2023-03-12T03:09:21;4.50;1.40
18392;DHT22;9322;50.932;5.318;2023-03-12T03:11:48;4.50;1.40
18392;DHT22;9322;50.932;5.318;2023-03-12T03:14:14;4.70;1.40
18392;DHT22;9322;50.932;5.318;2023-03-12T03:16:40;4.40;1.40
18392;DHT22;9322;50.932;5.318;2023-03-12T03:19:06;4.20;1.40
18392;DHT22;9322;50.932;5.318;2023-03-12T03:21:32;4.20;1.40
18392;DHT22;9322;50.932;5.318;2023-03-12T03:23:58;4.30;1.40
18392;DHT22;9322;50.932;5.318;2023-03-12T03:26:25;4.40;1.40
18392;DHT22;9322;50.932;5.318;2023-03-12T03:28:52;4.30;1.40
18392;DHT22;9322;50.932;5.318;2023-03-12T03:31:18;4.20;1.40
18392;DHT22;9322;50.932;5.318;2023-03-12T03:33:43;4.30;1.40
18392;DHT22;9322;50.932;5.318;2023-03-12T03:36:10;4.30;1.40
18392;DHT22;9322;50.932;5.318;2023-03-12T03:38:40;4.40;1.40
18392;DHT22;9322;50.932;5.318;2023-03-12T03:41:06;4.00;1.40
18392;DHT22;9322;50.932;5.318;2023-03-12T03:43:31;4.00;1.40
18392;DHT22;9322;50.932;5.318;2023-03-12T03:45:59;4.00;1.40
18392;DHT22;9322;50.932;5.318;2023-03-12T03:48:25;4.10;1.40
18392;DHT22;9322;50.932;5.318;2023-03-12T03:50:51;4.20;1.40
18392;DHT22;9322;50.932;5.318;2023-03-12T03:53:17;4.10;1.40
18392;DHT22;9322;50.932;5.318;2023-03-12T03:55:46;4.00;1.40
18392;DHT22;9322;50.932;5.318;2023-03-12T03:58:12;3.90;1.40
18392;DHT22;9322;50.932;5.318;2023-03-12T04:00:38;3.90;1.40
18392;DHT22;9322;50.932;5.318;2023-03-12T04:03:04;3.80;1.40
18392;DHT22;9322;50.932;5.318;2023-03-12T04:05:30;3.90;1.40
18392;DHT22;9322;50.932;5.318;2023-03-12T04:07:56;4.10;1.40
18392;DHT22;9322;50.932;5.318;2023-03-12T04:10:27;4.00;1.40
18392;DHT22;9322;50.932;5.318;2023-03-12T04:12:54;4.20;1.40
18392;DHT22;9322;50.932;5.318;2023-03-12T04:15:20;4.20;1.40
18392;DHT22;9322;50.932;5.318;2023-03-12T04:17:46;4.20;1.40
18392;DHT22;9322;50.932;5.318;2023-03-12T04:20:12;4.20;1.40
18392;DHT22;9322;50.932;5.318;2023-03-12T04:22:37;4.10;1.40
18392;DHT22;9322;50.932;5.318;2023-03-12T04:25:05;4.00;1.40
18392;DHT22;9322;50.932;5.318;2023-03-12T04:27:32;4.00;1.40
18392;DHT22;9322;50.932;5.318;2023-03-12T04:29:58;4.00;1.40
18392;DHT22;9322;50.932;5.318;2023-03-12T04:32:24;4.00;1.40
18392;DHT22;9322;50.932;5.318;2023-03-12T04:34:50;4.00;1.40
18392;DHT22;9322;50.932;5.318;2023-03-12T04:37:15;4.10;1.40
18392;DHT22;9322;50.932;5.318;2023-03-12T04:39:42;4.30;1.40
18392;DHT22;9322;50.932;5.318;2023-03-12T04:42:08;4.40;1.40
18392;DHT22;9322;50.932;5.318;2023-03-12T04:44:35;4.30;1.40
18392;DHT22;9322;50.932;5.318;2023-03-12T04:47:02;4.30;1.40
18392;DHT22;9322;50.932;5.318;2023-03-12T04:49:28;4.30;1.40
18392;DHT22;9322;50.932;5.318;2023-03-12T04:51:54;4.40;1.40
18392;DHT22;9322;50.932;5.318;2023-03-12T04:54:20;4.50;1.40
18392;DHT22;9322;50.932;5.318;2023-03-12T04:56:48;4.50;1.40
18392;DHT22;9322;50.932;5.318;2023-03-12T04:59:14;4.40;1.40
18392;DHT22;9322;50.932;5.318;2023-03-12T05:01:40;4.40;1.40
18392;DHT22;9322;50.932;5.318;2023-03-12T05:04:06;4.40;1.40
18392;DHT22;9322;50.932;5.318;2023-03-12T05:06:32;4.60;1.40
18392;DHT22;9322;50.932;5.318;2023-03-12T05:08:58;4.70;1.40
18392;DHT22;9322;50.932;5.318;2023-03-12T05:11:24;5.10;1.40
18392;DHT22;9322;50.932;5.318;2023-03-12T05:13:50;4.70;1.40
18392;DHT22;9322;50.932;5.318;2023-03-12T05:16:16;4.70;1.40
18392;DHT22;9322;50.932;5.318;2023-03-12T05:18:43;4.70;1.40
18392;DHT22;9322;50.932;5.318;2023-03-12T05:21:12;4.70;1.40
18392;DHT22;9322;50.932;5.318;2023-03-12T05:23:38;4.40;1.40
18392;DHT22;9322;50.932;5.318;2023-03-12T05:26:17;4.40;1.40
18392;DHT22;9322;50.932;5.318;2023-03-12T05:28:43;4.40;1.40
18392;DHT22;9322;50.932;5.318;2023-03-12T05:31:10;4.80;1.40
18392;DHT22;9322;50.932;5.318;2023-03-12T05:33:36;4.60;1.40
18392;DHT22;9322;50.932;5.318;2023-03-12T05:36:02;4.60;1.40
18392;DHT22;9322;50.932;5.318;2023-03-12T05:38:28;4.70;1.40
18392;DHT22;9322;50.932;5.318;2023-03-12T05:40:55;4.60;1.40
18392;DHT22;9322;50.932;5.318;2023-03-12T05:43:22;4.60;1.40
18392;DHT22;9322;50.932;5.318;2023-03-12T05:45:48;4.60;1.40
18392;DHT22;9322;50.932;5.318;2023-03-12T05:48:14;4.70;1.40
18392;DHT22;9322;50.932;5.318;2023-03-12T05:50:39;4.70;1.40
18392;DHT22;9322;50.932;5.318;2023-03-12T05:53:05;4.60;1.40
18392;DHT22;9322;50.932;5.318;2023-03-12T05:55:38;4.60;1.40
18392;DHT22;9322;50.932;5.318;2023-03-12T05:58:06;4.50;1.40
18392;DHT22;9322;50.932;5.318;2023-03-12T06:00:33;4.60;1.40
18392;DHT22;9322;50.932;5.318;2023-03-12T06:03:03;4.60;1.40
18392;DHT22;9322;50.932;5.318;2023-03-12T06:05:30;4.70;1.40
18392;DHT22;9322;50.932;5.318;2023-03-12T06:07:56;4.60;1.40
18392;DHT22;9322;50.932;5.318;2023-03-12T06:10:22;4.60;1.40
18392;DHT22;9322;50.932;5.318;2023-03-12T06:12:47;4.70;1.40
18392;DHT22;9322;50.932;5.318;2023-03-12T06:15:13;4.90;1.40
18392;DHT22;9322;50.932;5.318;2023-03-12T06:17:39;4.90;1.40
18392;DHT22;9322;50.932;5.318;2023-03-12T06:20:05;4.80;1.40
18392;DHT22;9322;50.932;5.318;2023-03-12T06:22:31;4.90;1.40
18392;DHT22;9322;50.932;5.318;2023-03-12T06:24:57;4.90;1.40
18392;DHT22;9322;50.932;5.318;2023-03-12T06:27:23;4.90;1.40
18392;DHT22;9322;50.932;5.318;2023-03-12T06:29:48;5.00;1.40
18392;DHT22;9322;50.932;5.318;2023-03-12T06:32:14;5.00;1.40
18392;DHT22;9322;50.932;5.318;2023-03-12T06:34:40;5.20;1.40
18392;DHT22;9322;50.932;5.318;2023-03-12T06:37:06;5.20;1.40
18392;DHT22;9322;50.932;5.318;2023-03-12T06:39:31;5.20;1.40
18392;DHT22;9322;50.932;5.318;2023-03-12T06:41:57;5.40;1.40
18392;DHT22;9322;50.932;5.318;2023-03-12T06:44:23;5.20;1.40
18392;DHT22;9322;50.932;5.318;2023-03-12T06:46:48;5.30;1.40
18392;DHT22;9322;50.932;5.318;2023-03-12T06:49:14;5.30;1.40
18392;DHT22;9322;50.932;5.318;2023-03-12T06:51:40;5.40;1.40
18392;DHT22;9322;50.932;5.318;2023-03-12T06:54:06;5.40;1.40
18392;DHT22;9322;50.932;5.318;2023-03-12T06:56:32;5.40;1.40
18392;DHT22;9322;50.932;5.318;2023-03-12T06:58:58;5.50;1.40
18392;DHT22;9322;50.932;5.318;2023-03-12T07:01:23;5.60;1.40
18392;DHT22;9322;50.932;5.318;2023-03-12T07:03:49;5.50;1.40
18392;DHT22;9322;50.932;5.318;2023-03-12T07:06:20;5.60;1.40
18392;DHT22;9322;50.932;5.318;2023-03-12T07:08:46;5.70;1.40
18392;DHT22;9322;50.932;5.318;2023-03-12T07:11:13;5.60;1.40
18392;DHT22;9322;50.932;5.318;2023-03-12T07:13:40;5.70;1.40
18392;DHT22;9322;50.932;5.318;2023-03-12T07:16:06;5.80;1.40
18392;DHT22;9322;50.932;5.318;2023-03-12T07:18:32;5.90;1.40
18392;DHT22;9322;50.932;5.318;2023-03-12T07:20:59;5.70;1.40
18392;DHT22;9322;50.932;5.318;2023-03-12T07:23:25;5.80;1.40
18392;DHT22;9322;50.932;5.318;2023-03-12T07:25:50;6.00;1.40
18392;DHT22;9322;50.932;5.318;2023-03-12T07:28:17;6.00;1.40
18392;DHT22;9322;50.932;5.318;2023-03-12T07:30:43;6.20;1.40
18392;DHT22;9322;50.932;5.318;2023-03-12T07:33:16;6.40;1.40
18392;DHT22;9322;50.932;5.318;2023-03-12T07:35:44;6.50;1.40
18392;DHT22;9322;50.932;5.318;2023-03-12T07:38:10;6.50;1.40
18392;DHT22;9322;50.932;5.318;2023-03-12T07:40:36;6.50;1.40
18392;DHT22;9322;50.932;5.318;2023-03-12T07:43:02;6.70;1.40
18392;DHT22;9322;50.932;5.318;2023-03-12T07:45:31;6.70;1.40
18392;DHT22;9322;50.932;5.318;2023-03-12T07:47:56;6.60;1.40
18392;DHT22;9322;50.932;5.318;2023-03-12T07:50:22;6.70;1.40
18392;DHT22;9322;50.932;5.318;2023-03-12T07:52:48;6.80;1.40
18392;DHT22;9322;50.932;5.318;2023-03-12T07:55:13;6.90;1.40
18392;DHT22;9322;50.932;5.318;2023-03-12T07:57:40;7.00;1.40
18392;DHT22;9322;50.932;5.318;2023-03-12T08:00:08;7.20;1.40
18392;DHT22;9322;50.932;5.318;2023-03-12T08:02:34;7.10;1.40
18392;DHT22;9322;50.932;5.318;2023-03-12T08:05:01;7.30;1.40
18392;DHT22;9322;50.932;5.318;2023-03-12T08:07:26;7.40;1.40
18392;DHT22;9322;50.932;5.318;2023-03-12T08:09:58;7.50;1.40
18392;DHT22;9322;50.932;5.318;2023-03-12T08:12:23;7.40;1.40
18392;DHT22;9322;50.932;5.318;2023-03-12T08:14:49;7.50;1.40
18392;DHT22;9322;50.932;5.318;2023-03-12T08:17:15;7.70;1.40
18392;DHT22;9322;50.932;5.318;2023-03-12T08:19:41;7.80;1.40
18392;DHT22;9322;50.932;5.318;2023-03-12T08:22:07;7.90;1.40
18392;DHT22;9322;50.932;5.318;2023-03-12T08:24:33;7.90;1.40
18392;DHT22;9322;50.932;5.318;2023-03-12T08:26:59;8.00;1.40
18392;DHT22;9322;50.932;5.318;2023-03-12T08:29:25;8.10;1.40
18392;DHT22;9322;50.932;5.318;2023-03-12T08:31:51;8.20;1.40
18392;DHT22;9322;50.932;5.318;2023-03-12T08:34:16;8.20;1.40
18392;DHT22;9322;50.932;5.318;2023-03-12T08:36:42;8.20;1.40
18392;DHT22;9322;50.932;5.318;2023-03-12T08:39:08;8.20;1.40
18392;DHT22;9322;50.932;5.318;2023-03-12T08:41:33;8.50;1.40
18392;DHT22;9322;50.932;5.318;2023-03-12T08:43:59;8.60;1.40
18392;DHT22;9322;50.932;5.318;2023-03-12T08:46:25;8.70;1.40
18392;DHT22;9322;50.932;5.318;2023-03-12T08:48:50;8.70;1.40
18392;DHT22;9322;50.932;5.318;2023-03-12T08:51:16;8.90;1.40
18392;DHT22;9322;50.932;5.318;2023-03-12T08:53:41;9.00;1.40
18392;DHT22;9322;50.932;5.318;2023-03-12T08:56:07;8.90;1.40
18392;DHT22;9322;50.932;5.318;2023-03-12T08:58:33;9.00;1.40
18392;DHT22;9322;50.932;5.318;2023-03-12T09:00:58;9.00;1.40
18392;DHT22;9322;50.932;5.318;2023-03-12T09:03:24;9.10;1.40
18392;DHT22;9322;50.932;5.318;2023-03-12T09:06:02;9.10;1.40
18392;DHT22;9322;50.932;5.318;2023-03-12T09:08:28;9.00;1.40
18392;DHT22;9322;50.932;5.318;2023-03-12T09:10:53;9.10;1.40
18392;DHT22;9322;50.932;5.318;2023-03-12T09:13:19;9.20;1.40
18392;DHT22;9322;50.932;5.318;2023-03-12T09:15:44;9.20;1.40
18392;DHT22;9322;50.932;5.318;2023-03-12T09:18:10;9.40;1.40
18392;DHT22;9322;50.932;5.318;2023-03-12T09:20:36;9.50;1.40
18392;DHT22;9322;50.932;5.318;2023-03-12T09:23:01;9.70;1.40
18392;DHT22;9322;50.932;5.318;2023-03-12T09:25:27;9.70;1.40
18392;DHT22;9322;50.932;5.318;2023-03-12T09:27:53;9.80;1.40
18392;DHT22;9322;50.932;5.318;2023-03-12T09:30:19;9.70;1.40
18392;DHT22;9322;50.932;5.318;2023-03-12T09:32:46;9.90;1.40
18392;DHT22;9322;50.932;5.318;2023-03-12T09:35:14;10.10;1.40
18392;DHT22;9322;50.932;5.318;2023-03-12T09:37:40;10.00;1.40
18392;DHT22;9322;50.932;5.318;2023-03-12T09:40:07;10.10;1.40
18392;DHT22;9322;50.932;5.318;2023-03-12T09:42:42;10.10;1.40
18392;DHT22;9322;50.932;5.318;2023-03-12T09:45:35;10.20;1.40
18392;DHT22;9322;50.932;5.318;2023-03-12T09:48:01;10.30;1.40
18392;DHT22;9322;50.932;5.318;2023-03-12T09:56:03;10.70;1.40
18392;DHT22;9322;50.932;5.318;2023-03-12T09:58:36;10.90;1.40
18392;DHT22;9322;50.932;5.318;2023-03-12T10:06:23;11.70;1.40
18392;DHT22;9322;50.932;5.318;2023-03-12T10:09:27;11.60;1.40
18392;DHT22;9322;50.932;5.318;2023-03-12T10:23:52;12.10;1.40
18392;DHT22;9322;50.932;5.318;2023-03-12T10:26:23;12.30;1.40
18392;DHT22;9322;50.932;5.318;2023-03-12T10:28:59;12.30;1.40
18392;DHT22;9322;50.932;5.318;2023-03-12T10:31:36;12.40;1.40
18392;DHT22;9322;50.932;5.318;2023-03-12T10:34:31;12.00;1.40
18392;DHT22;9322;50.932;5.318;2023-03-12T10:37:21;12.30;1.40
18392;DHT22;9322;50.932;5.318;2023-03-12T10:39:48;12.80;1.40
18392;DHT22;9322;50.932;5.318;2023-03-12T10:42:20;13.60;1.40
18392;DHT22;9322;50.932;5.318;2023-03-12T10:44:50;15.00;1.40
18392;DHT22;9322;50.932;5.318;2023-03-12T10:47:33;16.00;1.40
18392;DHT22;9322;50.932;5.318;2023-03-12T10:50:24;16.50;1.40
18392;DHT22;9322;50.932;5.318;2023-03-12T10:52:52;16.20;1.40
18392;DHT22;9322;50.932;5.318;2023-03-12T10:55:25;16.70;1.40
18392;DHT22;9322;50.932;5.318;2023-03-12T10:57:52;15.90;1.40
18392;DHT22;9322;50.932;5.318;2023-03-12T11:00:29;15.20;1.40
18392;DHT22;9322;50.932;5.318;2023-03-12T11:03:02;14.80;1.40
18392;DHT22;9322;50.932;5.318;2023-03-12T11:05:48;14.60;1.40
18392;DHT22;9322;50.932;5.318;2023-03-12T11:08:35;14.20;1.40
18392;DHT22;9322;50.932;5.318;2023-03-12T11:11:03;14.10;1.40
18392;DHT22;9322;50.932;5.318;2023-03-12T11:15:59;14.10;1.40
18392;DHT22;9322;50.932;5.318;2023-03-12T11:18:36;14.10;1.40
18392;DHT22;9322;50.932;5.318;2023-03-12T11:23:35;13.90;1.40
18392;DHT22;9322;50.932;5.318;2023-03-12T11:26:21;14.10;1.40
18392;DHT22;9322;50.932;5.318;2023-03-12T11:31:48;14.10;1.40
18392;DHT22;9322;50.932;5.318;2023-03-12T11:34:21;14.20;1.40
18392;DHT22;9322;50.932;5.318;2023-03-12T11:39:46;14.30;1.40
18392;DHT22;9322;50.932;5.318;2023-03-12T11:44:51;14.40;1.40
18392;DHT22;9322;50.932;5.318;2023-03-12T11:51:01;14.40;1.40
18392;DHT22;9322;50.932;5.318;2023-03-12T11:56:33;14.50;1.40
18392;DHT22;9322;50.932;5.318;2023-03-12T11:59:34;14.70;1.40
18392;DHT22;9322;50.932;5.318;2023-03-12T12:01:57;14.40;1.40
18392;DHT22;9322;50.932;5.318;2023-03-12T12:06:58;14.30;1.40
18392;DHT22;9322;50.932;5.318;2023-03-12T12:09:35;14.10;1.40
18392;DHT22;9322;50.932;5.318;2023-03-12T12:12:12;14.20;1.40
18392;DHT22;9322;50.932;5.318;2023-03-12T12:17:24;14.00;1.40
18392;DHT22;9322;50.932;5.318;2023-03-12T12:35:40;14.50;1.40
18392;DHT22;9322;50.932;5.318;2023-03-12T12:43:35;13.40;1.40
18392;DHT22;9322;50.932;5.318;2023-03-12T12:46:05;13.40;1.40
18392;DHT22;9322;50.932;5.318;2023-03-12T12:48:39;13.50;1.40
18392;DHT22;9322;50.932;5.318;2023-03-12T12:51:07;13.60;1.40
18392;DHT22;9322;50.932;5.318;2023-03-12T12:53:50;13.50;1.40
18392;DHT22;9322;50.932;5.318;2023-03-12T12:56:44;13.70;1.40
18392;DHT22;9322;50.932;5.318;2023-03-12T12:59:45;13.80;1.40
18392;DHT22;9322;50.932;5.318;2023-03-12T13:02:24;13.90;1.40
18392;DHT22;9322;50.932;5.318;2023-03-12T13:04:58;13.90;1.40
18392;DHT22;9322;50.932;5.318;2023-03-12T13:09:57;13.20;1.40
18392;DHT22;9322;50.932;5.318;2023-03-12T13:12:42;13.20;1.40
18392;DHT22;9322;50.932;5.318;2023-03-12T13:20:40;13.50;1.40
18392;DHT22;9322;50.932;5.318;2023-03-12T13:23:42;13.60;1.40
18392;DHT22;9322;50.932;5.318;2023-03-12T13:31:54;13.70;1.40
18392;DHT22;9322;50.932;5.318;2023-03-12T13:36:49;14.00;1.40
18392;DHT22;9322;50.932;5.318;2023-03-12T13:57:49;13.00;1.40
18392;DHT22;9322;50.932;5.318;2023-03-12T14:00:39;13.30;1.40
18392;DHT22;9322;50.932;5.318;2023-03-12T14:05:59;13.90;1.40
18392;DHT22;9322;50.932;5.318;2023-03-12T14:17:03;13.60;1.40
18392;DHT22;9322;50.932;5.318;2023-03-12T14:19:32;14.00;1.40
18392;DHT22;9322;50.932;5.318;2023-03-12T14:22:04;14.10;1.40
18392;DHT22;9322;50.932;5.318;2023-03-12T14:27:00;13.80;1.40
18392;DHT22;9322;50.932;5.318;2023-03-12T14:32:26;13.40;1.40
18392;DHT22;9322;50.932;5.318;2023-03-12T14:38:05;13.00;1.40
18392;DHT22;9322;50.932;5.318;2023-03-12T14:40:42;13.20;1.40
18392;DHT22;9322;50.932;5.318;2023-03-12T14:43:30;13.50;1.40
18392;DHT22;9322;50.932;5.318;2023-03-12T14:45:58;13.30;1.40
18392;DHT22;9322;50.932;5.318;2023-03-12T14:48:32;13.40;1.40
18392;DHT22;9322;50.932;5.318;2023-03-12T14:50:59;13.40;1.40
18392;DHT22;9322;50.932;5.318;2023-03-12T14:53:28;13.40;1.40
18392;DHT22;9322;50.932;5.318;2023-03-12T14:55:59;13.20;1.40
18392;DHT22;9322;50.932;5.318;2023-03-12T14:58:25;13.20;1.40
18392;DHT22;9322;50.932;5.318;2023-03-12T15:00:56;13.30;1.40
18392;DHT22;9322;50.932;5.318;2023-03-12T15:03:22;13.60;1.40
18392;DHT22;9322;50.932;5.318;2023-03-12T15:05:49;13.60;1.40
18392;DHT22;9322;50.932;5.318;2023-03-12T15:08:16;13.40;1.40
18392;DHT22;9322;50.932;5.318;2023-03-12T15:10:54;13.40;1.40
18392;DHT22;9322;50.932;5.318;2023-03-12T15:13:22;13.50;1.40
18392;DHT22;9322;50.932;5.318;2023-03-12T15:15:52;13.60;1.40
18392;DHT22;9322;50.932;5.318;2023-03-12T15:18:28;13.70;1.40
18392;DHT22;9322;50.932;5.318;2023-03-12T15:20:55;13.40;1.40
18392;DHT22;9322;50.932;5.318;2023-03-12T15:23:23;13.30;1.40
18392;DHT22;9322;50.932;5.318;2023-03-12T15:29:01;13.40;1.40
18392;DHT22;9322;50.932;5.318;2023-03-12T15:31:48;13.20;1.40
18392;DHT22;9322;50.932;5.318;2023-03-12T15:36:52;13.30;1.40
18392;DHT22;9322;50.932;5.318;2023-03-12T15:39:33;13.40;1.40
18392;DHT22;9322;50.932;5.318;2023-03-12T15:42:10;13.30;1.40
18392;DHT22;9322;50.932;5.318;2023-03-12T15:44:55;12.90;1.40
18392;DHT22;9322;50.932;5.318;2023-03-12T15:47:26;13.00;1.40
18392;DHT22;9322;50.932;5.318;2023-03-12T15:49:55;13.10;1.40
18392;DHT22;9322;50.932;5.318;2023-03-12T15:55:20;13.10;1.40
18392;DHT22;9322;50.932;5.318;2023-03-12T16:00:25;13.00;1.40
18392;DHT22;9322;50.932;5.318;2023-03-12T16:03:01;13.10;1.40
18392;DHT22;9322;50.932;5.318;2023-03-12T16:05:35;13.30;1.40
18392;DHT22;9322;50.932;5.318;2023-03-12T16:08:25;13.40;1.40
18392;DHT22;9322;50.932;5.318;2023-03-12T16:10:54;13.20;1.40
18392;DHT22;9322;50.932;5.318;2023-03-12T16:13:23;13.20;1.40
18392;DHT22;9322;50.932;5.318;2023-03-12T16:15:51;13.10;1.40
18392;DHT22;9322;50.932;5.318;2023-03-12T16:18:19;13.00;1.40
18392;DHT22;9322;50.932;5.318;2023-03-12T16:20:47;13.00;1.40
18392;DHT22;9322;50.932;5.318;2023-03-12T16:23:13;12.90;1.40
18392;DHT22;9322;50.932;5.318;2023-03-12T16:25:42;12.90;1.40
18392;DHT22;9322;50.932;5.318;2023-03-12T16:28:13;12.90;1.40
18392;DHT22;9322;50.932;5.318;2023-03-12T16:30:39;12.90;1.40
18392;DHT22;9322;50.932;5.318;2023-03-12T16:33:06;12.80;1.40
18392;DHT22;9322;50.932;5.318;2023-03-12T16:35:31;13.00;1.40
18392;DHT22;9322;50.932;5.318;2023-03-12T16:37:59;13.00;1.40
18392;DHT22;9322;50.932;5.318;2023-03-12T16:40:30;13.00;1.40
18392;DHT22;9322;50.932;5.318;2023-03-12T16:42:58;13.00;1.40
18392;DHT22;9322;50.932;5.318;2023-03-12T16:45:27;12.80;1.40
18392;DHT22;9322;50.932;5.318;2023-03-12T16:47:57;12.70;1.40
18392;DHT22;9322;50.932;5.318;2023-03-12T16:50:23;12.80;1.40
18392;DHT22;9322;50.932;5.318;2023-03-12T16:52:49;12.90;1.40
18392;DHT22;9322;50.932;5.318;2023-03-12T16:55:22;12.90;1.40
18392;DHT22;9322;50.932;5.318;2023-03-12T16:57:59;12.80;1.40
18392;DHT22;9322;50.932;5.318;2023-03-12T17:00:28;12.70;1.40
18392;DHT22;9322;50.932;5.318;2023-03-12T17:02:55;12.80;1.40
18392;DHT22;9322;50.932;5.318;2023-03-12T17:05:25;12.70;1.40
18392;DHT22;9322;50.932;5.318;2023-03-12T17:07:51;12.70;1.40
18392;DHT22;9322;50.932;5.318;2023-03-12T17:10:17;12.60;1.40
18392;DHT22;9322;50.932;5.318;2023-03-12T17:12:43;12.50;1.40
18392;DHT22;9322;50.932;5.318;2023-03-12T17:15:23;12.50;1.40
18392;DHT22;9322;50.932;5.318;2023-03-12T17:17:55;12.40;1.40
18392;DHT22;9322;50.932;5.318;2023-03-12T17:20:22;12.50;1.40
18392;DHT22;9322;50.932;5.318;2023-03-12T17:22:48;12.50;1.40
18392;DHT22;9322;50.932;5.318;2023-03-12T17:25:26;12.60;1.40
18392;DHT22;9322;50.932;5.318;2023-03-12T17:27:52;12.60;1.40
18392;DHT22;9322;50.932;5.318;2023-03-12T17:30:18;12.50;1.40
18392;DHT22;9322;50.932;5.318;2023-03-12T17:32:46;12.40;1.40
18392;DHT22;9322;50.932;5.318;2023-03-12T17:35:11;12.30;1.40
18392;DHT22;9322;50.932;5.318;2023-03-12T17:37:37;12.40;1.40
18392;DHT22;9322;50.932;5.318;2023-03-12T17:40:03;12.40;1.40
18392;DHT22;9322;50.932;5.318;2023-03-12T17:42:33;12.30;1.40
18392;DHT22;9322;50.932;5.318;2023-03-12T17:44:59;12.30;1.40
18392;DHT22;9322;50.932;5.318;2023-03-12T17:47:26;12.20;1.40
18392;DHT22;9322;50.932;5.318;2023-03-12T17:49:51;12.20;1.40
18392;DHT22;9322;50.932;5.318;2023-03-12T17:52:17;12.20;1.40
18392;DHT22;9322;50.932;5.318;2023-03-12T17:54:43;12.00;1.40
18392;DHT22;9322;50.932;5.318;2023-03-12T17:57:08;12.00;1.40
18392;DHT22;9322;50.932;5.318;2023-03-12T17:59:34;12.10;1.40
18392;DHT22;9322;50.932;5.318;2023-03-12T18:02:00;12.10;1.40
18392;DHT22;9322;50.932;5.318;2023-03-12T18:04:25;12.00;1.40
18392;DHT22;9322;50.932;5.318;2023-03-12T18:06:51;12.00;1.40
18392;DHT22;9322;50.932;5.318;2023-03-12T18:09:18;11.90;1.40
18392;DHT22;9322;50.932;5.318;2023-03-12T18:11:43;11.80;1.40
18392;DHT22;9322;50.932;5.318;2023-03-12T18:14:09;11.80;1.40
18392;DHT22;9322;50.932;5.318;2023-03-12T18:16:35;11.70;1.40
18392;DHT22;9322;50.932;5.318;2023-03-12T18:19:01;11.70;1.40
18392;DHT22;9322;50.932;5.318;2023-03-12T18:21:26;11.60;1.40
18392;DHT22;9322;50.932;5.318;2023-03-12T18:23:52;11.30;1.40
18392;DHT22;9322;50.932;5.318;2023-03-12T18:26:18;11.40;1.40
18392;DHT22;9322;50.932;5.318;2023-03-12T18:28:44;11.40;1.40
18392;DHT22;9322;50.932;5.318;2023-03-12T18:31:10;11.40;1.40
18392;DHT22;9322;50.932;5.318;2023-03-12T18:33:36;11.50;1.40
18392;DHT22;9322;50.932;5.318;2023-03-12T18:36:03;11.40;1.40
18392;DHT22;9322;50.932;5.318;2023-03-12T18:38:30;11.50;1.40
18392;DHT22;9322;50.932;5.318;2023-03-12T18:41:04;11.40;1.40
18392;DHT22;9322;50.932;5.318;2023-03-12T18:43:34;11.40;1.40